Time;durP1;ratioP1;P1;durP2;ratioP2;P2;SDS_P1;SDS_P2;PMS_P1;PMS_P2;Temp;Humidity;BMP_temperature;BMP_pressure;BME280_temperature;BME280_humidity;BME280_pressure;Samples;Min_cycle;Max_cycle;Signal;HPM_P1;HPM_P2
2022/08/23 00:01:47;;;;;;;9.88;6.47;;;17.60;99.90;;;;;;5072734;28;20045;-46
2022/08/23 00:04:22;;;;;;;8.63;6.07;;;17.60;99.90;;;;;;5073083;28;20076;-46
2022/08/23 00:06:49;;;;;;;10.20;6.03;;;17.60;99.90;;;;;;5072616;28;20055;-47
2022/08/23 00:09:17;;;;;;;10.50;6.80;;;17.50;99.90;;;;;;5072802;28;20076;-46
2022/08/23 00:11:46;;;;;;;10.93;7.30;;;17.50;99.90;;;;;;5072742;28;20052;-47
2022/08/23 00:14:23;;;;;;;8.82;7.03;;;17.50;99.90;;;;;;5072491;28;20481;-46
2022/08/23 00:16:50;;;;;;;7.63;6.47;;;17.40;99.90;;;;;;5072738;28;20049;-46
2022/08/23 00:19:17;;;;;;;9.88;7.63;;;17.50;99.90;;;;;;5072888;28;20047;-50
2022/08/23 00:21:45;;;;;;;12.38;7.05;;;17.40;99.90;;;;;;5072426;28;20542;-46
2022/08/23 00:24:12;;;;;;;11.60;7.47;;;17.40;99.90;;;;;;5072609;28;20419;-46
2022/08/23 00:26:58;;;;;;;8.73;7.47;;;17.40;99.90;;;;;;5072591;28;20067;-48
2022/08/23 00:29:29;;;;;;;8.95;7.60;;;17.30;99.90;;;;;;5072518;28;20048;-46
2022/08/23 00:31:55;;;;;;;12.73;7.78;;;17.30;99.90;;;;;;5072388;28;20048;-47
2022/08/23 00:34:20;;;;;;;12.70;8.30;;;17.30;99.90;;;;;;5073056;28;20044;-46
2022/08/23 00:36:48;;;;;;;11.70;8.55;;;17.30;99.90;;;;;;5076207;28;20041;-46
2022/08/23 00:39:14;;;;;;;8.95;7.28;;;17.30;99.90;;;;;;5076307;28;20051;-50
2022/08/23 00:41:40;;;;;;;10.95;8.05;;;17.30;99.90;;;;;;5075885;28;20490;-46
2022/08/23 00:49:44;;;;;;;9.95;8.07;;;17.20;99.90;;;;;;5076120;28;20044;-48
2022/08/23 00:52:23;;;;;;;11.80;7.50;;;17.20;99.90;;;;;;5075959;28;20044;-48
2022/08/23 00:54:52;;;;;;;10.23;7.88;;;17.20;99.90;;;;;;5075953;28;20068;-47
2022/08/23 00:57:19;;;;;;;11.18;7.70;;;17.20;99.90;;;;;;5076003;28;20167;-47
2022/08/23 00:59:45;;;;;;;10.90;7.68;;;17.10;99.90;;;;;;5075747;28;20496;-47
2022/08/23 01:02:12;;;;;;;9.82;7.90;;;17.40;99.90;;;;;;5075856;28;20041;-48
2022/08/23 01:04:39;;;;;;;10.00;8.27;;;;;;;;;;5075771;28;20048;-46
2022/08/23 01:07:54;;;;;;;10.18;7.72;;;17.00;99.90;;;;;;5075785;28;20123;-46
2022/08/23 01:10:46;;;;;;;8.93;7.72;;;17.00;99.90;;;;;;5072349;28;20113;-46
2022/08/23 01:13:20;;;;;;;10.40;8.88;;;17.00;99.90;;;;;;5057906;28;20055;-46
2022/08/23 01:16:12;;;;;;;10.90;9.43;;;17.00;99.90;;;;;;5075503;28;20132;-46
2022/08/23 01:18:40;;;;;;;13.90;9.93;;;17.00;99.90;;;;;;5075447;28;20075;-46
2022/08/23 01:21:17;;;;;;;13.10;10.20;;;16.90;99.90;;;;;;5075470;28;20047;-46
2022/08/23 01:23:50;;;;;;;11.57;9.13;;;16.90;99.90;;;;;;5057797;28;20059;-45
2022/08/23 01:26:18;;;;;;;11.07;9.93;;;16.90;99.90;;;;;;5057641;28;20049;-46
2022/08/23 01:28:43;;;;;;;;;;;16.90;99.90;;;;;;5075972;28;20129;-46
2022/08/23 01:31:11;;;;;;;11.40;9.43;;;16.90;99.90;;;;;;5075370;28;19955;-46
2022/08/23 01:33:38;;;;;;;14.30;10.88;;;16.80;99.90;;;;;;5075277;28;20036;-46
2022/08/23 01:36:07;;;;;;;14.15;11.32;;;16.80;99.90;;;;;;5057473;28;20048;-46
2022/08/23 01:38:32;;;;;;;13.02;10.00;;;16.80;99.90;;;;;;5075243;28;20079;-47
2022/08/23 01:40:58;;;;;;;14.18;11.35;;;16.80;99.90;;;;;;5074923;28;20133;-51
2022/08/23 01:43:24;;;;;;;14.13;10.65;;;16.70;99.90;;;;;;5074791;28;20498;-47
2022/08/23 01:45:51;;;;;;;10.82;9.48;;;16.70;99.90;;;;;;5074821;28;20044;-46
2022/08/23 01:48:19;;;;;;;14.30;9.77;;;16.70;99.90;;;;;;5074758;28;20090;-46
2022/08/23 01:50:46;;;;;;;11.63;10.15;;;16.60;99.90;;;;;;5074863;28;20048;-47
2022/08/23 01:53:12;;;;;;;10.88;9.80;;;16.60;99.90;;;;;;5056758;28;20037;-47
2022/08/23 01:55:41;;;;;;;12.63;10.63;;;16.60;99.90;;;;;;5074964;28;20041;-47
2022/08/23 01:58:07;;;;;;;12.85;11.50;;;16.60;99.90;;;;;;5074728;28;20529;-46
2022/08/23 02:00:40;;;;;;;12.02;10.88;;;16.60;99.90;;;;;;5074753;28;20441;-48
2022/08/23 02:03:07;;;;;;;10.45;8.73;;;16.60;99.90;;;;;;5074641;28;20084;-47
2022/08/23 02:05:36;;;;;;;10.65;9.65;;;16.50;99.90;;;;;;5074453;28;20371;-47
2022/08/23 02:08:59;;;;;;;15.25;10.90;;;16.60;99.90;;;;;;5074702;28;20049;-46
2022/08/23 02:10:49;;;;;;;13.13;10.45;;;16.60;99.90;;;;;;5074567;28;20049;-46
2022/08/23 02:13:16;;;;;;;12.15;9.88;;;16.50;99.90;;;;;;5074515;28;20044;-48
2022/08/23 02:15:43;;;;;;;12.80;9.43;;;16.50;99.90;;;;;;5074454;28;20033;-48
2022/08/23 02:18:10;;;;;;;15.18;11.23;;;16.40;99.90;;;;;;5074341;28;20063;-49
2022/08/23 02:20:36;;;;;;;12.95;11.13;;;16.50;99.90;;;;;;5074393;28;20095;-49
2022/08/23 02:23:02;;;;;;;13.00;11.65;;;16.40;99.90;;;;;;5074406;28;20041;-47
2022/08/23 02:25:28;;;;;;;12.82;11.52;;;16.40;99.90;;;;;;5074289;28;20040;-46
2022/08/23 02:27:53;;;;;;;12.68;11.32;;;16.50;99.90;;;;;;5074266;28;20048;-47
2022/08/23 02:30:19;;;;;;;13.13;10.75;;;16.50;99.90;;;;;;5074272;28;20495;-47
2022/08/23 02:32:44;;;;;;;16.55;11.98;;;16.40;99.90;;;;;;5073973;28;20036;-47
2022/08/23 02:35:10;;;;;;;13.88;12.40;;;16.30;99.90;;;;;;5074230;28;20036;-48
2022/08/23 02:37:36;;;;;;;13.55;12.25;;;16.40;99.90;;;;;;5074103;28;20036;-46
2022/08/23 02:40:03;;;;;;;11.50;10.40;;;16.40;99.90;;;;;;5158747;22;20491;-69
2022/08/23 02:42:29;;;;;;;12.70;10.80;;;16.30;99.90;;;;;;5146868;27;20450;-68
2022/08/23 02:44:55;;;;;;;13.00;11.70;;;16.30;99.90;;;;;;5145005;27;20086;-68
2022/08/23 02:47:20;;;;;;;13.00;11.32;;;16.30;99.90;;;;;;5135159;27;20047;-68
2022/08/23 02:49:46;;;;;;;9.65;8.80;;;16.30;99.90;;;;;;5115730;27;20051;-68
2022/08/23 02:52:12;;;;;;;12.18;10.95;;;16.20;99.90;;;;;;5156172;27;20044;-68
2022/08/23 02:54:37;;;;;;;10.38;9.40;;;16.10;99.90;;;;;;5156171;27;20121;-68
2022/08/23 02:57:03;;;;;;;12.05;10.85;;;16.10;99.90;;;;;;5115163;27;20100;-67
2022/08/23 02:59:29;;;;;;;13.07;11.82;;;16.20;99.90;;;;;;5134411;27;20394;-67
2022/08/23 03:01:54;;;;;;;13.13;12.00;;;16.20;99.90;;;;;;5116540;27;20039;-68
2022/08/23 03:04:20;;;;;;;14.32;12.15;;;16.10;99.90;;;;;;5117017;27;20087;-68
2022/08/23 03:06:46;;;;;;;11.63;10.45;;;16.10;99.90;;;;;;5116522;27;20047;-67
2022/08/23 03:09:11;;;;;;;12.80;11.23;;;16.10;99.90;;;;;;5116530;27;20117;-68
2022/08/23 03:11:43;;;;;;;11.77;10.68;;;16.00;99.90;;;;;;5134897;27;20131;-68
2022/08/23 03:14:09;;;;;;;15.32;13.00;;;16.00;99.90;;;;;;5104863;27;20078;-68
2022/08/23 03:16:34;;;;;;;16.52;12.98;;;16.00;99.90;;;;;;5155960;27;20122;-68
2022/08/23 03:19:01;;;;;;;13.88;12.43;;;16.00;99.90;;;;;;5155637;27;20091;-68
2022/08/23 03:21:27;;;;;;;13.73;12.07;;;16.00;99.90;;;;;;5154146;27;20130;-68
2022/08/23 03:23:52;;;;;;;14.38;12.85;;;16.00;99.90;;;;;;5154469;27;20041;-68
2022/08/23 03:26:18;;;;;;;13.55;12.10;;;16.00;99.90;;;;;;5155448;27;20110;-68
2022/08/23 03:28:45;;;;;;;14.18;12.82;;;16.00;99.90;;;;;;5136890;27;20035;-68
2022/08/23 03:31:12;;;;;;;16.25;12.95;;;16.00;99.90;;;;;;5155187;27;20118;-67
2022/08/23 03:33:38;;;;;;;14.18;12.73;;;16.00;99.90;;;;;;5155108;27;20039;-68
2022/08/23 03:36:06;;;;;;;13.60;12.27;;;16.00;99.90;;;;;;5136951;27;20078;-68
2022/08/23 03:38:33;;;;;;;14.32;12.85;;;16.00;99.90;;;;;;5155444;27;20038;-68
2022/08/23 03:40:59;;;;;;;15.93;13.70;;;16.00;99.90;;;;;;5118984;27;20062;-68
2022/08/23 03:43:25;;;;;;;17.08;13.82;;;16.00;99.90;;;;;;5119251;27;20081;-68
2022/08/23 03:45:51;;;;;;;14.52;13.15;;;15.90;99.90;;;;;;5155336;27;20121;-68
2022/08/23 03:48:16;;;;;;;15.57;13.18;;;16.00;99.90;;;;;;5149837;27;20125;-67
2022/08/23 03:50:42;;;;;;;15.65;12.43;;;15.90;99.90;;;;;;5134440;27;20490;-68
2022/08/23 03:53:08;;;;;;;15.48;13.50;;;15.90;99.90;;;;;;5116186;27;20401;-68
2022/08/23 03:55:34;;;;;;;14.57;13.27;;;15.80;99.90;;;;;;5098951;28;20173;-68
2022/08/23 03:58:00;;;;;;;15.98;14.23;;;15.80;99.90;;;;;;5134372;28;20390;-68
2022/08/23 04:00:25;;;;;;;15.57;14.15;;;15.80;99.90;;;;;;5115832;28;20090;-68
2022/08/23 04:02:51;;;;;;;14.95;13.52;;;15.80;99.90;;;;;;5134366;28;20494;-67
2022/08/23 04:05:16;;;;;;;17.92;13.70;;;15.80;99.90;;;;;;5134064;28;20042;-68
2022/08/23 04:07:42;;;;;;;16.77;15.13;;;15.80;99.90;;;;;;5134339;28;20035;-68
2022/08/23 04:10:11;;;;;;;18.10;15.10;;;15.80;99.90;;;;;;5135933;27;20401;-68
2022/08/23 04:12:37;;;;;;;16.35;14.70;;;15.80;99.90;;;;;;5136997;27;20130;-68
2022/08/23 04:15:03;;;;;;;16.45;14.77;;;15.70;99.90;;;;;;5119852;27;20122;-67
2022/08/23 04:17:28;;;;;;;16.35;14.68;;;15.70;99.90;;;;;;5138428;27;20047;-67
2022/08/23 04:19:54;;;;;;;14.35;12.95;;;15.70;99.90;;;;;;5138499;27;20035;-68
2022/08/23 04:22:20;;;;;;;16.35;14.70;;;15.70;99.90;;;;;;5138108;27;20116;-67
2022/08/23 04:24:46;;;;;;;16.17;14.52;;;15.70;99.90;;;;;;5119960;27;20039;-68
2022/08/23 04:27:13;;;;;;;17.58;15.40;;;15.70;99.90;;;;;;5137917;27;20096;-68
2022/08/23 04:29:39;;;;;;;15.27;13.77;;;15.70;99.90;;;;;;5119842;27;20359;-68
2022/08/23 04:32:07;;;;;;;16.23;14.55;;;15.70;99.90;;;;;;5119951;27;20040;-68
2022/08/23 04:34:33;;;;;;;;;;;15.70;99.90;;;;;;5120267;27;20075;-68
2022/08/23 04:36:59;;;;;;;17.75;14.43;;;15.70;99.90;;;;;;5119865;27;20382;-68
2022/08/23 04:39:26;;;;;;;16.10;14.10;;;15.70;99.90;;;;;;5102118;27;20125;-67
2022/08/23 04:44:36;;;;;;;16.70;15.00;;;15.70;99.90;;;;;;5138024;27;20047;-68
2022/08/23 04:47:02;;;;;;;17.00;15.45;;;15.70;99.90;;;;;;5137800;27;20039;-68
2022/08/23 04:49:27;;;;;;;12.80;11.60;;;15.70;99.90;;;;;;5119539;27;20092;-68
2022/08/23 04:51:53;;;;;;;15.40;13.95;;;15.70;99.90;;;;;;5136325;27;20039;-68
2022/08/23 04:54:19;;;;;;;16.88;15.00;;;15.70;99.90;;;;;;5102227;27;20435;-68
2022/08/23 04:56:45;;;;;;;15.75;13.70;;;15.80;99.90;;;;;;5119039;27;20099;-68
2022/08/23 04:59:10;;;;;;;16.75;15.02;;;15.80;99.90;;;;;;5119175;27;20039;-67
2022/08/23 05:01:36;;;;;;;18.30;14.68;;;15.80;99.90;;;;;;5119388;27;20035;-68
2022/08/23 05:04:03;;;;;;;15.43;13.90;;;15.90;99.90;;;;;;5119022;27;20046;-68
2022/08/23 05:06:30;;;;;;;14.68;13.35;;;15.90;99.90;;;;;;5119333;27;20043;-68
2022/08/23 05:08:56;;;;;;;14.60;13.20;;;15.90;99.90;;;;;;5136075;27;20138;-67
2022/08/23 05:11:23;;;;;;;18.83;14.30;;;16.00;99.90;;;;;;5101800;27;20047;-67
2022/08/23 05:13:48;;;;;;;15.23;12.65;;;16.00;99.90;;;;;;5137355;27;20096;-68
2022/08/23 05:16:15;;;;;;;15.27;13.52;;;16.10;99.90;;;;;;5118577;27;20039;-68
2022/08/23 05:18:41;;;;;;;14.73;13.38;;;16.20;99.90;;;;;;5118559;27;20043;-68
2022/08/23 05:21:07;;;;;;;14.93;13.63;;;16.20;99.90;;;;;;5136082;27;20050;-68
2022/08/23 05:23:33;;;;;;;17.63;13.13;;;16.30;99.90;;;;;;5118490;27;20035;-68
2022/08/23 05:25:59;;;;;;;14.68;13.35;;;16.30;99.90;;;;;;5101827;27;20039;-68
2022/08/23 05:28:31;;;;;;;14.73;13.15;;;16.40;99.90;;;;;;5118594;27;20046;-67
2022/08/23 05:31:07;;;;;;;15.15;13.48;;;16.50;99.90;;;;;;5118590;27;20402;-68
2022/08/23 05:33:34;;;;;;;14.48;13.00;;;16.60;99.90;;;;;;5118526;27;20047;-68
2022/08/23 05:36:00;;;;;;;16.90;13.40;;;16.70;99.90;;;;;;5136942;27;20047;-68
2022/08/23 05:38:27;;;;;;;14.75;12.50;;;16.80;99.90;;;;;;5136912;27;20047;-68
2022/08/23 05:40:54;;;;;;;14.98;12.50;;;17.20;99.90;;;;;;5118188;27;20055;-68
2022/08/23 05:43:20;;;;;;;13.93;12.68;;;17.30;99.90;;;;;;5137061;27;20122;-68
2022/08/23 05:45:46;;;;;;;14.55;12.35;;;17.60;99.90;;;;;;5136729;27;20043;-68
2022/08/23 05:48:14;;;;;;;13.02;11.73;;;18.40;99.90;;;;;;5136512;27;20490;-68
2022/08/23 05:50:41;;;;;;;12.57;11.30;;;19.20;99.90;;;;;;5101003;27;20035;-68
2022/08/23 05:53:09;;;;;;;13.40;10.57;;;19.90;99.90;;;;;;5118283;27;20050;-68
2022/08/23 05:55:35;;;;;;;10.63;9.73;;;20.30;99.90;;;;;;5136622;27;20043;-69
2022/08/23 05:58:01;;;;;;;10.90;9.80;;;20.20;99.90;;;;;;5136378;27;20039;-68
2022/08/23 06:00:28;;;;;;;10.00;9.10;;;19.90;99.90;;;;;;5136114;27;20047;-68
2022/08/23 06:02:54;;;;;;;10.77;9.77;;;19.80;99.90;;;;;;5117959;27;20035;-68
2022/08/23 06:05:20;;;;;;;10.85;9.63;;;19.70;99.90;;;;;;5136016;27;20555;-68
2022/08/23 06:07:48;;;;;;;11.43;10.23;;;19.80;99.90;;;;;;5136389;27;20067;-68
2022/08/23 06:10:13;;;;;;;11.35;9.68;;;20.00;99.90;;;;;;5136359;27;20082;-68
2022/08/23 06:12:39;;;;;;;10.55;9.50;;;20.10;99.90;;;;;;5135996;27;20078;-68
2022/08/23 06:15:05;;;;;;;11.32;10.00;;;20.30;99.90;;;;;;5136264;27;20039;-68
2022/08/23 06:17:30;;;;;;;10.75;9.25;;;21.60;99.90;;;;;;5136186;27;20133;-68
2022/08/23 06:19:56;;;;;;;10.45;8.38;;;22.20;99.90;;;;;;5135713;27;20537;-69
2022/08/23 06:22:22;;;;;;;10.90;8.38;;;22.60;99.90;;;;;;5136053;27;20035;-69
2022/08/23 06:24:48;;;;;;;8.80;8.00;;;22.20;99.90;;;;;;5135899;27;20042;-68
2022/08/23 06:27:13;;;;;;;9.55;8.52;;;22.10;99.90;;;;;;5135793;27;20138;-68
2022/08/23 06:29:39;;;;;;;9.10;8.30;;;22.20;99.90;;;;;;5117489;27;20084;-68
2022/08/23 06:32:06;;;;;;;11.90;8.20;;;23.10;99.90;;;;;;5135451;27;20046;-68
2022/08/23 06:34:35;;;;;;;11.15;8.40;;;22.90;99.90;;;;;;5135772;27;20082;-69
2022/08/23 06:37:07;;;;;;;8.32;7.47;;;23.90;99.90;;;;;;5135762;27;20042;-68
2022/08/23 06:39:33;;;;;;;9.52;8.02;;;24.50;99.90;;;;;;5135465;27;20405;-68
2022/08/23 06:42:16;;;;;;;8.32;7.30;;;25.40;99.90;;;;;;5135484;27;20043;-69
2022/08/23 06:44:42;;;;;;;7.40;6.70;;;25.90;99.90;;;;;;5135438;27;20050;-68
2022/08/23 06:47:08;;;;;;;11.65;6.68;;;26.60;99.90;;;;;;5135526;27;20039;-68
2022/08/23 06:49:34;;;;;;;6.88;5.97;;;27.20;99.90;;;;;;5135429;27;20039;-68
2022/08/23 06:52:03;;;;;;;7.07;5.53;;;27.70;99.90;;;;;;5135467;27;20043;-69
2022/08/23 06:54:30;;;;;;;7.57;5.15;;;28.40;99.90;;;;;;5135393;27;20035;-69
2022/08/23 06:56:56;;;;;;;;;;;28.90;99.90;;;;;;5135422;27;20497;-69
2022/08/23 06:59:22;;;;;;;5.87;5.17;;;29.10;97.80;;;;;;5116542;27;19920;-69
2022/08/23 07:01:53;;;;;;;5.40;4.43;;;29.50;99.00;;;;;;5135399;27;20273;-69
2022/08/23 07:04:41;;;;;;;8.00;4.60;;;29.90;96.80;;;;;;5135209;27;20444;-69
2022/08/23 07:07:08;;;;;;;6.00;4.30;;;29.60;95.70;;;;;;5116201;27;20059;-69
2022/08/23 07:09:34;;;;;;;5.97;4.18;;;29.10;95.40;;;;;;5134929;27;20043;-69
2022/08/23 07:12:00;;;;;;;5.97;4.13;;;29.30;94.20;;;;;;5134741;27;20035;-69
2022/08/23 07:14:27;;;;;;;5.10;3.95;;;29.60;94.00;;;;;;5135219;27;20083;-69
2022/08/23 07:16:59;;;;;;;5.43;4.30;;;29.80;95.60;;;;;;5135042;27;20039;-69
2022/08/23 07:19:28;;;;;;;6.28;3.92;;;30.10;94.30;;;;;;5135012;27;20042;-69
2022/08/23 07:21:54;;;;;;;4.30;3.90;;;30.30;93.30;;;;;;5134708;27;20050;-69
2022/08/23 07:24:20;;;;;;;5.25;4.15;;;30.10;93.40;;;;;;5134522;27;20402;-69
2022/08/23 07:26:48;;;;;;;5.50;4.10;;;30.30;93.30;;;;;;5134827;27;20403;-69
2022/08/23 07:29:15;;;;;;;5.90;4.03;;;29.30;92.80;;;;;;5099408;27;20464;-69
2022/08/23 07:31:45;;;;;;;6.43;4.00;;;29.00;93.40;;;;;;5134877;27;20113;-69
2022/08/23 07:34:11;;;;;;;4.38;3.42;;;28.40;93.50;;;;;;5134577;27;20407;-69
2022/08/23 07:36:39;;;;;;;7.35;4.35;;;28.10;94.20;;;;;;5116147;27;20040;-69
2022/08/23 07:39:06;;;;;;;4.95;3.88;;;27.50;93.80;;;;;;5134109;27;20035;-69
2022/08/23 07:41:33;;;;;;;5.55;4.32;;;27.40;95.20;;;;;;5134548;27;20443;-69
2022/08/23 07:44:01;;;;;;;5.55;3.97;;;27.40;94.40;;;;;;5134197;27;20066;-69
2022/08/23 07:46:27;;;;;;;4.50;4.10;;;27.40;94.20;;;;;;5134346;27;20043;-69
2022/08/23 07:48:54;;;;;;;6.78;3.72;;;27.30;94.60;;;;;;5134419;27;20039;-68
2022/08/23 07:51:20;;;;;;;7.57;3.72;;;27.30;94.80;;;;;;5134206;27;20077;-69
2022/08/23 07:53:46;;;;;;;4.97;3.30;;;27.30;95.80;;;;;;5134526;27;20074;-69
2022/08/23 07:56:14;;;;;;;4.90;4.40;;;27.30;96.40;;;;;;5134502;27;20152;-69
2022/08/23 07:58:40;;;;;;;5.18;4.60;;;27.20;94.80;;;;;;5115903;28;20110;-69
2022/08/23 08:01:14;;;;;;;5.82;4.10;;;27.30;95.30;;;;;;5134304;28;20557;-69
2022/08/23 08:03:42;;;;;;;6.97;4.78;;;27.10;95.00;;;;;;5134313;28;20086;-69
2022/08/23 08:06:14;;;;;;;7.07;4.60;;;27.00;95.60;;;;;;5134288;28;20039;-69
2022/08/23 08:08:41;;;;;;;5.80;4.90;;;26.90;95.20;;;;;;5116291;28;20431;-69
2022/08/23 08:11:13;;;;;;;4.90;4.22;;;26.60;95.40;;;;;;5134108;28;20050;-69
2022/08/23 08:13:44;;;;;;;5.85;4.40;;;26.90;95.60;;;;;;5134114;28;20039;-68
2022/08/23 08:16:32;;;;;;;5.85;4.35;;;27.00;96.20;;;;;;5134270;28;20124;-69
2022/08/23 08:19:00;;;;;;;6.88;4.65;;;27.20;95.90;;;;;;5134265;28;20047;-69
2022/08/23 08:21:27;;;;;;;6.70;4.25;;;27.40;95.80;;;;;;5115548;28;20055;-69
2022/08/23 08:23:54;;;;;;;5.22;4.00;;;27.40;95.40;;;;;;5134091;28;20164;-69
2022/08/23 08:26:20;;;;;;;7.40;4.35;;;27.60;94.80;;;;;;5134202;28;20062;-69
2022/08/23 08:28:46;;;;;;;7.78;4.75;;;27.80;96.10;;;;;;5133835;28;20035;-69
2022/08/23 08:31:12;;;;;;;4.50;3.83;;;28.10;95.40;;;;;;5134086;28;20047;-69
2022/08/23 08:33:38;;;;;;;6.15;4.13;;;28.40;96.20;;;;;;5134104;28;20118;-69
2022/08/23 08:36:05;;;;;;;7.05;4.65;;;28.40;95.30;;;;;;5133889;28;20115;-70
2022/08/23 08:38:31;;;;;;;;;;;27.80;94.20;;;;;;5134332;28;20043;-69
2022/08/23 08:41:17;;;;;;;6.20;4.33;;;27.80;95.30;;;;;;5133964;28;20006;-69
2022/08/23 08:44:04;;;;;;;5.88;4.45;;;27.60;94.70;;;;;;5134054;28;20071;-69
2022/08/23 08:46:58;;;;;;;7.03;4.60;;;27.70;94.90;;;;;;5133924;28;20401;-69
2022/08/23 08:49:52;;;;;;;11.05;5.78;;;27.30;95.10;;;;;;5129438;28;20055;-69
2022/08/23 08:52:31;;;;;;;6.72;4.35;;;27.20;95.20;;;;;;5104590;28;20489;-69
2022/08/23 08:55:04;;;;;;;5.40;3.88;;;27.40;95.70;;;;;;5133775;28;20047;-69
2022/08/23 08:57:36;;;;;;;7.85;4.70;;;27.50;95.90;;;;;;5136004;27;20039;-69
2022/08/23 09:00:12;;;;;;;5.03;4.20;;;27.40;95.60;;;;;;5137785;27;20047;-70
2022/08/23 09:02:37;;;;;;;6.72;4.32;;;27.70;96.10;;;;;;5137743;27;20062;-69
2022/08/23 09:05:30;;;;;;;4.68;4.18;;;27.90;96.10;;;;;;5118914;27;20473;-69
2022/08/23 09:08:14;;;;;;;5.68;4.32;;;28.30;95.40;;;;;;5137718;27;20450;-69
2022/08/23 09:11:14;;;;;;;5.45;4.00;;;28.40;95.00;;;;;;5137421;27;20043;-69
2022/08/23 09:14:07;;;;;;;5.85;3.90;;;28.70;96.00;;;;;;5137579;27;20043;-69
2022/08/23 09:16:50;;;;;;;6.35;3.92;;;28.90;95.50;;;;;;5137274;27;20071;-69
2022/08/23 09:19:16;;;;;;;5.85;4.35;;;28.60;94.10;;;;;;5118954;27;20050;-69
2022/08/23 09:22:08;;;;;;;4.72;3.60;;;28.50;93.80;;;;;;5137049;27;20508;-69
2022/08/23 09:24:33;;;;;;;10.57;4.47;;;28.70;94.80;;;;;;5133070;27;20054;-69
2022/08/23 09:26:59;;;;;;;7.85;3.97;;;28.70;94.20;;;;;;5136944;27;20039;-69
2022/08/23 09:29:33;;;;;;;6.35;3.63;;;28.70;94.30;;;;;;5136816;27;20035;-69
2022/08/23 09:32:21;;;;;;;9.95;4.40;;;28.70;95.10;;;;;;5137091;27;20090;-70
2022/08/23 09:34:48;;;;;;;5.05;4.00;;;28.70;94.40;;;;;;5136403;27;20494;-69
2022/08/23 09:37:18;;;;;;;7.22;3.83;;;28.70;94.10;;;;;;5136792;27;20047;-69
2022/08/23 09:40:11;;;;;;;5.97;4.75;;;28.80;94.70;;;;;;5136547;27;20142;-70
2022/08/23 09:42:39;;;;;;;7.80;4.13;;;28.70;93.00;;;;;;5136801;27;20055;-69
2022/08/23 09:45:30;;;;;;;5.28;3.95;;;28.70;93.20;;;;;;5136874;27;20448;-69
2022/08/23 09:47:56;;;;;;;8.73;4.25;;;28.60;92.60;;;;;;5136657;27;20077;-71
2022/08/23 09:50:26;;;;;;;7.03;3.75;;;28.40;93.00;;;;;;5136412;27;20485;-69
2022/08/23 09:53:06;;;;;;;7.82;3.83;;;28.50;93.40;;;;;;5136394;27;20529;-69
2022/08/23 09:55:36;;;;;;;4.85;3.78;;;28.60;93.90;;;;;;5136718;27;20405;-69
2022/08/23 09:58:05;;;;;;;5.15;3.97;;;28.80;93.90;;;;;;5136435;27;20039;-70
2022/08/23 10:00:34;;;;;;;5.88;4.15;;;29.00;93.80;;;;;;5136386;27;20050;-69
2022/08/23 10:03:22;;;;;;;6.43;3.35;;;28.80;92.50;;;;;;5136563;27;20043;-69
2022/08/23 10:05:57;;;;;;;8.95;3.67;;;29.20;92.20;;;;;;5136767;27;20036;-69
2022/08/23 10:08:35;;;;;;;7.90;3.78;;;28.80;91.40;;;;;;5135530;27;20091;-69
2022/08/23 10:11:12;;;;;;;7.07;3.92;;;29.00;91.60;;;;;;5135974;27;20042;-69
2022/08/23 10:13:41;;;;;;;5.57;3.55;;;28.80;91.10;;;;;;5136220;27;20044;-69
2022/08/23 10:16:16;;;;;;;8.05;3.75;;;28.80;91.10;;;;;;5136001;27;20047;-69
2022/08/23 10:19:05;;;;;;;5.38;3.42;;;28.90;92.20;;;;;;5136236;27;20448;-69
2022/08/23 10:21:40;;;;;;;5.90;3.75;;;29.00;92.80;;;;;;5135835;27;20043;-69
2022/08/23 10:24:21;;;;;;;4.03;3.50;;;28.90;91.80;;;;;;5136078;27;20123;-69
2022/08/23 10:30:22;;;;;;;8.27;3.05;;;28.70;90.90;;;;;;5136005;27;20078;-69
2022/08/23 10:32:59;;;;;;;8.43;3.30;;;28.90;91.20;;;;;;5136042;27;20127;-69
2022/08/23 10:35:25;;;;;;;4.95;3.33;;;29.00;91.20;;;;;;5135757;27;20046;-69
2022/08/23 10:38:08;;;;;;;5.28;3.00;;;29.20;91.30;;;;;;5100423;27;20389;-69
2022/08/23 10:40:43;;;;;;;4.10;3.38;;;29.20;90.80;;;;;;5135178;27;20509;-69
2022/08/23 10:43:33;;;;;;;6.20;3.33;;;29.20;90.10;;;;;;5135424;27;20572;-69
2022/08/23 10:46:01;;;;;;;4.57;2.30;;;29.20;89.60;;;;;;5135712;27;20043;-69
2022/08/23 10:48:35;;;;;;;4.60;3.05;;;29.50;89.70;;;;;;5135240;27;20046;-69
2022/08/23 10:51:16;;;;;;;3.58;2.85;;;29.70;89.10;;;;;;5135593;27;20039;-69
2022/08/23 10:53:47;;;;;;;5.13;2.78;;;29.80;87.40;;;;;;5135464;27;20058;-69
2022/08/23 10:56:19;;;;;;;5.05;2.55;;;29.80;89.50;;;;;;5135268;27;20043;-69
2022/08/23 10:58:50;;;;;;;5.45;2.58;;;29.80;88.90;;;;;;5116773;27;20047;-69
2022/08/23 11:01:39;;;;;;;3.90;2.92;;;30.10;87.80;;;;;;5135304;27;20053;-69
2022/08/23 11:04:33;;;;;;;4.28;3.03;;;30.10;88.30;;;;;;5116696;27;20062;-69
2022/08/23 11:07:01;;;;;;;3.97;2.30;;;30.00;85.10;;;;;;5130943;27;20062;-69
2022/08/23 11:09:26;;;;;;;5.78;2.85;;;30.20;88.30;;;;;;5135357;27;20049;-69
2022/08/23 11:12:19;;;;;;;5.47;2.75;;;30.30;86.90;;;;;;5135474;27;20121;-69
2022/08/23 11:14:52;;;;;;;4.47;2.25;;;30.30;85.30;;;;;;5135000;27;20039;-69
2022/08/23 11:17:33;;;;;;;5.40;2.22;;;30.50;84.10;;;;;;5135093;27;20091;-69
2022/08/23 11:20:04;;;;;;;6.25;2.50;;;30.30;83.10;;;;;;5134385;27;20043;-69
2022/08/23 11:22:53;;;;;;;3.88;2.22;;;30.30;81.10;;;;;;5134792;27;20039;-70
2022/08/23 11:25:19;;;;;;;3.00;2.20;;;30.50;84.20;;;;;;5134704;27;20386;-69
2022/08/23 11:27:45;;;;;;;5.65;2.63;;;30.30;83.40;;;;;;5134897;27;20035;-69
2022/08/23 11:30:35;;;;;;;6.40;2.80;;;30.50;81.80;;;;;;5134451;27;20050;-69
2022/08/23 11:33:23;;;;;;;5.80;2.30;;;30.60;81.80;;;;;;5134645;27;20035;-69
2022/08/23 11:36:15;;;;;;;5.95;2.53;;;30.60;83.20;;;;;;5134463;27;20478;-69
2022/08/23 11:38:46;;;;;;;3.42;2.50;;;30.60;82.90;;;;;;5134316;27;20047;-69
2022/08/23 11:41:18;;;;;;;4.05;2.45;;;30.60;83.40;;;;;;5116255;27;20454;-69
2022/08/23 11:43:56;;;;;;;3.88;2.20;;;30.40;80.00;;;;;;5134649;27;20397;-69
2022/08/23 11:46:24;;;;;;;6.70;2.28;;;30.30;84.00;;;;;;5134637;27;20031;-70
2022/08/23 11:49:28;;;;;;;5.70;2.47;;;30.40;79.80;;;;;;5134476;27;20035;-69
2022/08/23 11:52:32;;;;;;;4.50;2.30;;;30.00;80.30;;;;;;5097009;27;20108;-69
2022/08/23 11:55:16;;;;;;;4.57;2.47;;;30.00;79.80;;;;;;5134281;27;20043;-69
2022/08/23 11:58:16;;;;;;;4.40;2.30;;;30.10;80.70;;;;;;5134614;27;20043;-69
2022/08/23 12:00:50;;;;;;;4.60;2.45;;;30.10;80.80;;;;;;5134469;28;20160;-69
2022/08/23 12:03:32;;;;;;;5.47;2.65;;;30.30;82.00;;;;;;5134400;28;20035;-69
2022/08/23 12:06:10;;;;;;;5.80;2.50;;;30.40;81.40;;;;;;5134246;28;20066;-69
2022/08/23 12:08:54;;;;;;;6.60;2.60;;;30.70;82.50;;;;;;5134135;28;20513;-69
2022/08/23 12:11:24;;;;;;;3.67;2.60;;;30.80;80.70;;;;;;5134426;28;20050;-69
2022/08/23 12:14:20;;;;;;;4.57;2.47;;;30.50;78.70;;;;;;5134091;28;20367;-69
2022/08/23 12:16:46;;;;;;;2.85;2.42;;;31.00;81.90;;;;;;5134104;28;20081;-69
2022/08/23 12:19:23;;;;;;;4.63;2.40;;;31.00;79.10;;;;;;5134234;28;20078;-69
2022/08/23 12:21:51;;;;;;;5.30;2.72;;;31.10;81.90;;;;;;5134323;28;20077;-69
2022/08/23 12:24:34;;;;;;;3.63;2.92;;;31.20;79.70;;;;;;5134057;28;20043;-69
2022/08/23 12:27:28;;;;;;;4.32;2.60;;;30.60;76.40;;;;;;5134072;28;20043;-70
2022/08/23 12:30:09;;;;;;;4.82;2.60;;;30.90;77.30;;;;;;5133920;27;20103;-69
2022/08/23 12:32:41;;;;;;;5.03;2.60;;;30.90;79.60;;;;;;5137935;27;20117;-70
2022/08/23 12:35:30;;;;;;;4.18;2.40;;;31.00;77.40;;;;;;5137936;27;20082;-69
2022/08/23 12:38:07;;;;;;;3.83;2.80;;;30.90;78.70;;;;;;5138154;27;20050;-69
2022/08/23 12:40:46;;;;;;;3.63;2.70;;;30.80;78.60;;;;;;5138032;27;20098;-69
2022/08/23 12:43:12;;;;;;;4.78;2.70;;;30.70;78.20;;;;;;5137656;27;20441;-69
2022/08/23 12:45:44;;;;;;;6.68;2.58;;;31.00;81.00;;;;;;5138109;27;20086;-69
2022/08/23 12:48:19;;;;;;;3.50;2.65;;;31.10;81.70;;;;;;5119187;27;20508;-68
2022/08/23 12:50:56;;;;;;;5.47;2.63;;;31.20;79.50;;;;;;5137635;27;20053;-69
2022/08/23 12:53:48;;;;;;;4.03;2.60;;;31.30;79.60;;;;;;5137881;27;20050;-69
2022/08/23 12:56:18;;;;;;;4.88;2.75;;;30.70;76.70;;;;;;5137847;27;20047;-69
2022/08/23 12:58:56;;;;;;;4.15;2.50;;;30.80;81.90;;;;;;5137544;27;20486;-69
2022/08/23 13:01:29;;;;;;;4.85;2.58;;;30.80;80.00;;;;;;5137519;27;20031;-69
2022/08/23 13:04:12;;;;;;;4.85;2.95;;;30.90;80.60;;;;;;5137663;27;20043;-69
2022/08/23 13:06:47;;;;;;;4.00;2.30;;;30.90;82.40;;;;;;5137692;27;20069;-69
2022/08/23 13:09:25;;;;;;;4.93;2.60;;;31.00;82.70;;;;;;5137517;27;20054;-69
2022/08/23 13:11:51;;;;;;;4.20;2.55;;;31.30;80.80;;;;;;5137608;27;20047;-69
2022/08/23 13:14:32;;;;;;;5.60;2.80;;;31.70;82.50;;;;;;5118795;27;20103;-69